sensor_id;sensor_type;location;lat;lon;timestamp;P1;durP1;ratioP1;P2;durP2;ratioP2
42284;SDS011;27942;47.510;18.966;2022-07-10T00:00:00;0.10;;;0.10;;
42284;SDS011;27942;47.510;18.966;2022-07-10T00:02:25;0.65;;;0.30;;
42284;SDS011;27942;47.510;18.966;2022-07-10T00:04:50;0.25;;;0.17;;
42284;SDS011;27942;47.510;18.966;2022-07-10T00:07:15;0.65;;;0.40;;
42284;SDS011;27942;47.510;18.966;2022-07-10T00:09:40;0.13;;;0.13;;
42284;SDS011;27942;47.510;18.966;2022-07-10T00:12:05;0.55;;;0.38;;
42284;SDS011;27942;47.510;18.966;2022-07-10T00:14:31;0.22;;;0.22;;
42284;SDS011;27942;47.510;18.966;2022-07-10T00:16:56;0.57;;;0.20;;
42284;SDS011;27942;47.510;18.966;2022-07-10T00:19:21;0.30;;;0.20;;
42284;SDS011;27942;47.510;18.966;2022-07-10T00:21:46;0.73;;;0.20;;
42284;SDS011;27942;47.510;18.966;2022-07-10T00:24:12;0.52;;;0.22;;
42284;SDS011;27942;47.510;18.966;2022-07-10T00:26:37;0.50;;;0.38;;
42284;SDS011;27942;47.510;18.966;2022-07-10T00:29:02;2.15;;;0.43;;
42284;SDS011;27942;47.510;18.966;2022-07-10T00:31:27;0.10;;;0.10;;
42284;SDS011;27942;47.510;18.966;2022-07-10T00:33:53;0.28;;;0.10;;
42284;SDS011;27942;47.510;18.966;2022-07-10T00:36:18;0.77;;;0.25;;
42284;SDS011;27942;47.510;18.966;2022-07-10T00:38:43;0.68;;;0.20;;
42284;SDS011;27942;47.510;18.966;2022-07-10T00:41:08;1.63;;;0.28;;
42284;SDS011;27942;47.510;18.966;2022-07-10T00:46:17;2.90;;;0.40;;
42284;SDS011;27942;47.510;18.966;2022-07-10T00:48:45;0.40;;;0.30;;
42284;SDS011;27942;47.510;18.966;2022-07-10T00:51:10;0.52;;;0.52;;
42284;SDS011;27942;47.510;18.966;2022-07-10T00:53:35;0.30;;;0.30;;
42284;SDS011;27942;47.510;18.966;2022-07-10T00:56:01;1.02;;;0.38;;
42284;SDS011;27942;47.510;18.966;2022-07-10T00:58:26;0.20;;;0.20;;
42284;SDS011;27942;47.510;18.966;2022-07-10T01:00:51;0.20;;;0.15;;
42284;SDS011;27942;47.510;18.966;2022-07-10T01:03:17;0.10;;;0.10;;
42284;SDS011;27942;47.510;18.966;2022-07-10T01:05:42;0.20;;;0.20;;
42284;SDS011;27942;47.510;18.966;2022-07-10T01:08:07;0.10;;;0.10;;
42284;SDS011;27942;47.510;18.966;2022-07-10T01:10:32;0.30;;;0.20;;
42284;SDS011;27942;47.510;18.966;2022-07-10T01:12:57;0.40;;;0.30;;
42284;SDS011;27942;47.510;18.966;2022-07-10T01:15:23;0.13;;;0.13;;
42284;SDS011;27942;47.510;18.966;2022-07-10T01:17:48;0.10;;;0.10;;
42284;SDS011;27942;47.510;18.966;2022-07-10T01:20:14;1.33;;;0.30;;
42284;SDS011;27942;47.510;18.966;2022-07-10T01:22:40;0.10;;;0.10;;
42284;SDS011;27942;47.510;18.966;2022-07-10T01:25:05;0.40;;;0.22;;
42284;SDS011;27942;47.510;18.966;2022-07-10T01:27:31;0.43;;;0.30;;
42284;SDS011;27942;47.510;18.966;2022-07-10T01:29:56;0.45;;;0.28;;
42284;SDS011;27942;47.510;18.966;2022-07-10T01:32:22;0.88;;;0.68;;
42284;SDS011;27942;47.510;18.966;2022-07-10T01:34:47;0.30;;;0.30;;
42284;SDS011;27942;47.510;18.966;2022-07-10T01:37:13;0.80;;;0.30;;
42284;SDS011;27942;47.510;18.966;2022-07-10T01:39:39;0.25;;;0.20;;
42284;SDS011;27942;47.510;18.966;2022-07-10T01:42:04;0.20;;;0.20;;
42284;SDS011;27942;47.510;18.966;2022-07-10T01:44:29;0.60;;;0.40;;
42284;SDS011;27942;47.510;18.966;2022-07-10T01:46:54;0.43;;;0.20;;
42284;SDS011;27942;47.510;18.966;2022-07-10T01:49:19;0.17;;;0.17;;
42284;SDS011;27942;47.510;18.966;2022-07-10T01:51:45;0.20;;;0.20;;
42284;SDS011;27942;47.510;18.966;2022-07-10T01:54:10;0.28;;;0.15;;
42284;SDS011;27942;47.510;18.966;2022-07-10T01:56:35;0.40;;;0.20;;
42284;SDS011;27942;47.510;18.966;2022-07-10T01:59:00;0.15;;;0.15;;
42284;SDS011;27942;47.510;18.966;2022-07-10T02:01:28;0.45;;;0.32;;
42284;SDS011;27942;47.510;18.966;2022-07-10T02:03:53;0.15;;;0.15;;
42284;SDS011;27942;47.510;18.966;2022-07-10T02:06:36;0.20;;;0.20;;
42284;SDS011;27942;47.510;18.966;2022-07-10T02:09:01;0.65;;;0.40;;
42284;SDS011;27942;47.510;18.966;2022-07-10T02:11:27;1.27;;;0.35;;
42284;SDS011;27942;47.510;18.966;2022-07-10T02:13:52;0.45;;;0.38;;
42284;SDS011;27942;47.510;18.966;2022-07-10T02:16:17;0.57;;;0.30;;
42284;SDS011;27942;47.510;18.966;2022-07-10T02:18:42;0.28;;;0.10;;
42284;SDS011;27942;47.510;18.966;2022-07-10T02:21:07;0.30;;;0.20;;
42284;SDS011;27942;47.510;18.966;2022-07-10T02:23:33;0.63;;;0.40;;
42284;SDS011;27942;47.510;18.966;2022-07-10T02:25:59;0.52;;;0.40;;
42284;SDS011;27942;47.510;18.966;2022-07-10T02:28:24;0.40;;;0.30;;
42284;SDS011;27942;47.510;18.966;2022-07-10T02:30:49;0.68;;;0.38;;
42284;SDS011;27942;47.510;18.966;2022-07-10T02:33:14;0.60;;;0.43;;
42284;SDS011;27942;47.510;18.966;2022-07-10T02:35:39;1.05;;;0.45;;
42284;SDS011;27942;47.510;18.966;2022-07-10T02:38:04;0.30;;;0.30;;
42284;SDS011;27942;47.510;18.966;2022-07-10T02:40:30;0.63;;;0.40;;
42284;SDS011;27942;47.510;18.966;2022-07-10T02:42:55;1.38;;;0.40;;
42284;SDS011;27942;47.510;18.966;2022-07-10T02:45:20;0.30;;;0.22;;
42284;SDS011;27942;47.510;18.966;2022-07-10T02:47:45;1.17;;;0.47;;
42284;SDS011;27942;47.510;18.966;2022-07-10T02:50:10;1.35;;;0.65;;
42284;SDS011;27942;47.510;18.966;2022-07-10T02:52:35;0.50;;;0.50;;
42284;SDS011;27942;47.510;18.966;2022-07-10T02:55:01;0.40;;;0.40;;
42284;SDS011;27942;47.510;18.966;2022-07-10T02:57:26;0.73;;;0.43;;
42284;SDS011;27942;47.510;18.966;2022-07-10T02:59:52;0.30;;;0.30;;
42284;SDS011;27942;47.510;18.966;2022-07-10T03:02:18;0.30;;;0.30;;
42284;SDS011;27942;47.510;18.966;2022-07-10T03:04:43;0.40;;;0.30;;
42284;SDS011;27942;47.510;18.966;2022-07-10T03:07:08;0.98;;;0.35;;
42284;SDS011;27942;47.510;18.966;2022-07-10T03:09:34;0.40;;;0.40;;
42284;SDS011;27942;47.510;18.966;2022-07-10T03:11:59;0.47;;;0.43;;
42284;SDS011;27942;47.510;18.966;2022-07-10T03:14:25;1.80;;;0.40;;
42284;SDS011;27942;47.510;18.966;2022-07-10T03:16:50;0.52;;;0.43;;
42284;SDS011;27942;47.510;18.966;2022-07-10T03:19:15;1.17;;;0.70;;
42284;SDS011;27942;47.510;18.966;2022-07-10T03:21:40;1.73;;;0.70;;
42284;SDS011;27942;47.510;18.966;2022-07-10T03:24:06;1.25;;;0.68;;
42284;SDS011;27942;47.510;18.966;2022-07-10T03:26:31;1.60;;;0.82;;
42284;SDS011;27942;47.510;18.966;2022-07-10T03:28:56;2.10;;;0.90;;
42284;SDS011;27942;47.510;18.966;2022-07-10T03:31:22;0.80;;;0.70;;
42284;SDS011;27942;47.510;18.966;2022-07-10T03:33:47;0.63;;;0.63;;
42284;SDS011;27942;47.510;18.966;2022-07-10T03:36:12;0.82;;;0.70;;
42284;SDS011;27942;47.510;18.966;2022-07-10T03:38:40;0.65;;;0.47;;
42284;SDS011;27942;47.510;18.966;2022-07-10T03:41:06;0.60;;;0.50;;
42284;SDS011;27942;47.510;18.966;2022-07-10T03:43:31;1.20;;;0.68;;
42284;SDS011;27942;47.510;18.966;2022-07-10T03:45:56;3.58;;;0.65;;
42284;SDS011;27942;47.510;18.966;2022-07-10T03:48:22;0.35;;;0.30;;
42284;SDS011;27942;47.510;18.966;2022-07-10T03:50:49;1.00;;;0.65;;
42284;SDS011;27942;47.510;18.966;2022-07-10T03:53:14;0.80;;;0.45;;
42284;SDS011;27942;47.510;18.966;2022-07-10T03:55:39;0.82;;;0.60;;
42284;SDS011;27942;47.510;18.966;2022-07-10T03:58:04;0.40;;;0.40;;
42284;SDS011;27942;47.510;18.966;2022-07-10T04:00:30;0.70;;;0.47;;
42284;SDS011;27942;47.510;18.966;2022-07-10T04:03:03;0.70;;;0.40;;
42284;SDS011;27942;47.510;18.966;2022-07-10T04:05:29;1.65;;;0.80;;
42284;SDS011;27942;47.510;18.966;2022-07-10T04:07:54;0.55;;;0.40;;
42284;SDS011;27942;47.510;18.966;2022-07-10T04:10:21;0.93;;;0.57;;
42284;SDS011;27942;47.510;18.966;2022-07-10T04:12:47;0.65;;;0.45;;
42284;SDS011;27942;47.510;18.966;2022-07-10T04:15:13;2.05;;;0.77;;
42284;SDS011;27942;47.510;18.966;2022-07-10T04:17:38;1.05;;;0.55;;
42284;SDS011;27942;47.510;18.966;2022-07-10T04:20:03;1.20;;;0.90;;
42284;SDS011;27942;47.510;18.966;2022-07-10T04:22:29;0.75;;;0.63;;
42284;SDS011;27942;47.510;18.966;2022-07-10T04:24:54;0.50;;;0.50;;
42284;SDS011;27942;47.510;18.966;2022-07-10T04:27:19;0.73;;;0.50;;
42284;SDS011;27942;47.510;18.966;2022-07-10T04:29:45;0.93;;;0.65;;
42284;SDS011;27942;47.510;18.966;2022-07-10T04:32:10;0.88;;;0.85;;
42284;SDS011;27942;47.510;18.966;2022-07-10T04:34:35;1.13;;;0.70;;
42284;SDS011;27942;47.510;18.966;2022-07-10T04:37:00;0.90;;;0.70;;
42284;SDS011;27942;47.510;18.966;2022-07-10T04:39:26;2.53;;;0.88;;
42284;SDS011;27942;47.510;18.966;2022-07-10T04:41:51;1.60;;;0.75;;
42284;SDS011;27942;47.510;18.966;2022-07-10T04:44:17;0.55;;;0.52;;
42284;SDS011;27942;47.510;18.966;2022-07-10T04:46:42;0.90;;;0.50;;
42284;SDS011;27942;47.510;18.966;2022-07-10T04:49:08;0.60;;;0.57;;
42284;SDS011;27942;47.510;18.966;2022-07-10T04:51:33;0.85;;;0.63;;
42284;SDS011;27942;47.510;18.966;2022-07-10T04:53:58;0.88;;;0.75;;
42284;SDS011;27942;47.510;18.966;2022-07-10T04:56:23;0.95;;;0.60;;
42284;SDS011;27942;47.510;18.966;2022-07-10T04:58:48;1.33;;;0.50;;
42284;SDS011;27942;47.510;18.966;2022-07-10T05:01:13;0.65;;;0.40;;
42284;SDS011;27942;47.510;18.966;2022-07-10T05:03:39;0.40;;;0.40;;
42284;SDS011;27942;47.510;18.966;2022-07-10T05:06:04;0.60;;;0.60;;
42284;SDS011;27942;47.510;18.966;2022-07-10T05:08:29;0.75;;;0.52;;
42284;SDS011;27942;47.510;18.966;2022-07-10T05:10:54;1.15;;;0.60;;
42284;SDS011;27942;47.510;18.966;2022-07-10T05:13:19;0.82;;;0.55;;
42284;SDS011;27942;47.510;18.966;2022-07-10T05:15:45;0.32;;;0.32;;
42284;SDS011;27942;47.510;18.966;2022-07-10T05:18:11;0.47;;;0.38;;
42284;SDS011;27942;47.510;18.966;2022-07-10T05:20:36;0.20;;;0.20;;
42284;SDS011;27942;47.510;18.966;2022-07-10T05:23:02;0.50;;;0.45;;
42284;SDS011;27942;47.510;18.966;2022-07-10T05:25:28;2.40;;;0.57;;
42284;SDS011;27942;47.510;18.966;2022-07-10T05:27:55;0.82;;;0.60;;
42284;SDS011;27942;47.510;18.966;2022-07-10T05:30:20;0.73;;;0.40;;
42284;SDS011;27942;47.510;18.966;2022-07-10T05:32:45;0.47;;;0.47;;
42284;SDS011;27942;47.510;18.966;2022-07-10T05:35:11;1.23;;;0.60;;
42284;SDS011;27942;47.510;18.966;2022-07-10T05:37:37;1.40;;;0.70;;
42284;SDS011;27942;47.510;18.966;2022-07-10T05:40:02;0.98;;;0.63;;
42284;SDS011;27942;47.510;18.966;2022-07-10T05:42:27;0.40;;;0.40;;
42284;SDS011;27942;47.510;18.966;2022-07-10T05:44:53;0.68;;;0.57;;
42284;SDS011;27942;47.510;18.966;2022-07-10T05:47:18;0.95;;;0.85;;
42284;SDS011;27942;47.510;18.966;2022-07-10T05:49:43;1.10;;;0.50;;
42284;SDS011;27942;47.510;18.966;2022-07-10T05:52:08;0.68;;;0.60;;
42284;SDS011;27942;47.510;18.966;2022-07-10T05:54:33;0.38;;;0.38;;
42284;SDS011;27942;47.510;18.966;2022-07-10T05:56:59;2.65;;;0.77;;
42284;SDS011;27942;47.510;18.966;2022-07-10T05:59:24;0.95;;;0.65;;
42284;SDS011;27942;47.510;18.966;2022-07-10T06:01:49;0.82;;;0.70;;
42284;SDS011;27942;47.510;18.966;2022-07-10T06:04:14;1.38;;;0.73;;
42284;SDS011;27942;47.510;18.966;2022-07-10T06:06:39;1.33;;;0.80;;
42284;SDS011;27942;47.510;18.966;2022-07-10T06:09:05;1.05;;;0.52;;
42284;SDS011;27942;47.510;18.966;2022-07-10T06:11:30;2.28;;;0.98;;
42284;SDS011;27942;47.510;18.966;2022-07-10T06:13:55;1.13;;;1.02;;
42284;SDS011;27942;47.510;18.966;2022-07-10T06:16:21;0.50;;;0.50;;
42284;SDS011;27942;47.510;18.966;2022-07-10T06:18:47;0.65;;;0.45;;
42284;SDS011;27942;47.510;18.966;2022-07-10T06:21:12;1.33;;;0.65;;
42284;SDS011;27942;47.510;18.966;2022-07-10T06:23:37;0.50;;;0.30;;
42284;SDS011;27942;47.510;18.966;2022-07-10T06:26:02;0.65;;;0.50;;
42284;SDS011;27942;47.510;18.966;2022-07-10T06:28:27;0.93;;;0.47;;
42284;SDS011;27942;47.510;18.966;2022-07-10T06:30:53;0.93;;;0.60;;
42284;SDS011;27942;47.510;18.966;2022-07-10T06:33:18;1.23;;;0.40;;
42284;SDS011;27942;47.510;18.966;2022-07-10T06:35:43;1.13;;;0.52;;
42284;SDS011;27942;47.510;18.966;2022-07-10T06:38:08;0.52;;;0.50;;
42284;SDS011;27942;47.510;18.966;2022-07-10T06:40:37;0.52;;;0.38;;
42284;SDS011;27942;47.510;18.966;2022-07-10T06:43:02;0.52;;;0.40;;
42284;SDS011;27942;47.510;18.966;2022-07-10T06:45:27;0.45;;;0.32;;
42284;SDS011;27942;47.510;18.966;2022-07-10T06:47:53;0.40;;;0.32;;
42284;SDS011;27942;47.510;18.966;2022-07-10T06:50:22;1.40;;;0.43;;
42284;SDS011;27942;47.510;18.966;2022-07-10T06:52:48;0.20;;;0.20;;
42284;SDS011;27942;47.510;18.966;2022-07-10T06:55:13;0.63;;;0.20;;
42284;SDS011;27942;47.510;18.966;2022-07-10T06:57:39;0.47;;;0.28;;
42284;SDS011;27942;47.510;18.966;2022-07-10T07:00:05;0.85;;;0.57;;
42284;SDS011;27942;47.510;18.966;2022-07-10T07:02:30;1.48;;;0.40;;
42284;SDS011;27942;47.510;18.966;2022-07-10T07:04:55;0.50;;;0.30;;
42284;SDS011;27942;47.510;18.966;2022-07-10T07:07:20;0.65;;;0.35;;
42284;SDS011;27942;47.510;18.966;2022-07-10T07:09:45;0.60;;;0.40;;
42284;SDS011;27942;47.510;18.966;2022-07-10T07:12:14;1.02;;;0.40;;
42284;SDS011;27942;47.510;18.966;2022-07-10T07:14:39;0.47;;;0.40;;
42284;SDS011;27942;47.510;18.966;2022-07-10T07:17:05;0.35;;;0.30;;
42284;SDS011;27942;47.510;18.966;2022-07-10T07:19:35;0.70;;;0.50;;
42284;SDS011;27942;47.510;18.966;2022-07-10T07:22:22;0.75;;;0.30;;
42284;SDS011;27942;47.510;18.966;2022-07-10T07:25:06;0.47;;;0.40;;
42284;SDS011;27942;47.510;18.966;2022-07-10T07:27:33;0.95;;;0.32;;
42284;SDS011;27942;47.510;18.966;2022-07-10T07:30:01;0.88;;;0.47;;
42284;SDS011;27942;47.510;18.966;2022-07-10T07:32:26;0.38;;;0.30;;
42284;SDS011;27942;47.510;18.966;2022-07-10T07:34:51;0.95;;;0.40;;
42284;SDS011;27942;47.510;18.966;2022-07-10T07:37:17;0.10;;;0.10;;
42284;SDS011;27942;47.510;18.966;2022-07-10T07:39:42;0.32;;;0.20;;
42284;SDS011;27942;47.510;18.966;2022-07-10T07:42:07;1.13;;;0.50;;
42284;SDS011;27942;47.510;18.966;2022-07-10T07:44:32;2.42;;;0.50;;
42284;SDS011;27942;47.510;18.966;2022-07-10T07:46:57;0.20;;;0.20;;
42284;SDS011;27942;47.510;18.966;2022-07-10T07:49:23;0.85;;;0.22;;
42284;SDS011;27942;47.510;18.966;2022-07-10T07:51:48;0.90;;;0.50;;
42284;SDS011;27942;47.510;18.966;2022-07-10T07:54:13;0.20;;;0.20;;
42284;SDS011;27942;47.510;18.966;2022-07-10T07:56:39;0.38;;;0.28;;
42284;SDS011;27942;47.510;18.966;2022-07-10T07:59:04;0.70;;;0.30;;
42284;SDS011;27942;47.510;18.966;2022-07-10T08:01:29;0.57;;;0.30;;
42284;SDS011;27942;47.510;18.966;2022-07-10T08:03:54;0.60;;;0.30;;
42284;SDS011;27942;47.510;18.966;2022-07-10T08:06:20;1.58;;;0.38;;
42284;SDS011;27942;47.510;18.966;2022-07-10T08:08:45;0.50;;;0.40;;
42284;SDS011;27942;47.510;18.966;2022-07-10T08:11:10;0.30;;;0.30;;
42284;SDS011;27942;47.510;18.966;2022-07-10T08:13:36;1.40;;;0.50;;
42284;SDS011;27942;47.510;18.966;2022-07-10T08:16:01;0.60;;;0.30;;
42284;SDS011;27942;47.510;18.966;2022-07-10T08:18:26;1.23;;;0.50;;
42284;SDS011;27942;47.510;18.966;2022-07-10T08:20:51;0.45;;;0.30;;
42284;SDS011;27942;47.510;18.966;2022-07-10T08:23:16;3.20;;;0.47;;
42284;SDS011;27942;47.510;18.966;2022-07-10T08:25:42;0.63;;;0.30;;
42284;SDS011;27942;47.510;18.966;2022-07-10T08:28:07;0.70;;;0.30;;
42284;SDS011;27942;47.510;18.966;2022-07-10T08:30:34;0.38;;;0.28;;
42284;SDS011;27942;47.510;18.966;2022-07-10T08:32:59;1.15;;;0.30;;
42284;SDS011;27942;47.510;18.966;2022-07-10T08:35:25;0.20;;;0.20;;
42284;SDS011;27942;47.510;18.966;2022-07-10T08:37:50;0.30;;;0.30;;
42284;SDS011;27942;47.510;18.966;2022-07-10T08:40:15;0.28;;;0.20;;
42284;SDS011;27942;47.510;18.966;2022-07-10T08:42:41;0.52;;;0.40;;
42284;SDS011;27942;47.510;18.966;2022-07-10T08:45:08;0.60;;;0.27;;
42284;SDS011;27942;47.510;18.966;2022-07-10T08:47:34;0.55;;;0.40;;
42284;SDS011;27942;47.510;18.966;2022-07-10T08:49:59;0.68;;;0.40;;
42284;SDS011;27942;47.510;18.966;2022-07-10T08:54:50;0.50;;;0.20;;
42284;SDS011;27942;47.510;18.966;2022-07-10T08:57:15;0.73;;;0.30;;
42284;SDS011;27942;47.510;18.966;2022-07-10T08:59:40;3.33;;;0.50;;
42284;SDS011;27942;47.510;18.966;2022-07-10T09:02:05;0.30;;;0.30;;
42284;SDS011;27942;47.510;18.966;2022-07-10T09:04:31;0.40;;;0.15;;
42284;SDS011;27942;47.510;18.966;2022-07-10T09:06:56;2.03;;;0.77;;
42284;SDS011;27942;47.510;18.966;2022-07-10T09:09:21;0.25;;;0.10;;
42284;SDS011;27942;47.510;18.966;2022-07-10T09:11:48;0.35;;;0.22;;
42284;SDS011;27942;47.510;18.966;2022-07-10T09:14:19;0.50;;;0.20;;
42284;SDS011;27942;47.510;18.966;2022-07-10T09:16:49;0.65;;;0.40;;
42284;SDS011;27942;47.510;18.966;2022-07-10T09:19:21;1.35;;;0.40;;
42284;SDS011;27942;47.510;18.966;2022-07-10T09:21:51;0.75;;;0.40;;
42284;SDS011;27942;47.510;18.966;2022-07-10T09:24:17;0.30;;;0.20;;
42284;SDS011;27942;47.510;18.966;2022-07-10T09:26:48;0.40;;;0.20;;
42284;SDS011;27942;47.510;18.966;2022-07-10T09:29:22;0.63;;;0.30;;
42284;SDS011;27942;47.510;18.966;2022-07-10T09:31:57;0.32;;;0.25;;
42284;SDS011;27942;47.510;18.966;2022-07-10T09:37:17;0.60;;;0.30;;
42284;SDS011;27942;47.510;18.966;2022-07-10T09:39:55;0.60;;;0.30;;
42284;SDS011;27942;47.510;18.966;2022-07-10T09:42:24;0.52;;;0.20;;
42284;SDS011;27942;47.510;18.966;2022-07-10T09:44:50;0.98;;;0.40;;
42284;SDS011;27942;47.510;18.966;2022-07-10T09:47:22;0.40;;;0.20;;
42284;SDS011;27942;47.510;18.966;2022-07-10T09:49:47;1.48;;;0.30;;
42284;SDS011;27942;47.510;18.966;2022-07-10T09:52:12;0.20;;;0.13;;
42284;SDS011;27942;47.510;18.966;2022-07-10T09:54:37;0.30;;;0.20;;
42284;SDS011;27942;47.510;18.966;2022-07-10T09:57:03;0.35;;;0.20;;
42284;SDS011;27942;47.510;18.966;2022-07-10T09:59:30;0.22;;;0.20;;
42284;SDS011;27942;47.510;18.966;2022-07-10T10:01:56;0.70;;;0.40;;
42284;SDS011;27942;47.510;18.966;2022-07-10T10:04:24;1.05;;;0.20;;
42284;SDS011;27942;47.510;18.966;2022-07-10T10:06:52;0.22;;;0.20;;
42284;SDS011;27942;47.510;18.966;2022-07-10T10:14:11;0.25;;;0.20;;
42284;SDS011;27942;47.510;18.966;2022-07-10T10:16:37;0.50;;;0.10;;
42284;SDS011;27942;47.510;18.966;2022-07-10T10:19:04;0.22;;;0.20;;
42284;SDS011;27942;47.510;18.966;2022-07-10T10:21:50;0.10;;;0.10;;
42284;SDS011;27942;47.510;18.966;2022-07-10T10:24:16;0.10;;;0.10;;
42284;SDS011;27942;47.510;18.966;2022-07-10T10:26:42;0.13;;;0.13;;
42284;SDS011;27942;47.510;18.966;2022-07-10T10:29:08;0.10;;;0.10;;
42284;SDS011;27942;47.510;18.966;2022-07-10T10:31:33;0.10;;;0.10;;
42284;SDS011;27942;47.510;18.966;2022-07-10T10:33:59;0.08;;;0.08;;
42284;SDS011;27942;47.510;18.966;2022-07-10T10:39:22;0.20;;;0.15;;
42284;SDS011;27942;47.510;18.966;2022-07-10T10:41:50;0.00;;;0.00;;
42284;SDS011;27942;47.510;18.966;2022-07-10T10:49:22;0.30;;;0.10;;
42284;SDS011;27942;47.510;18.966;2022-07-10T10:54:27;0.65;;;0.20;;
42284;SDS011;27942;47.510;18.966;2022-07-10T10:59:54;0.20;;;0.10;;
42284;SDS011;27942;47.510;18.966;2022-07-10T11:02:30;0.10;;;0.10;;
42284;SDS011;27942;47.510;18.966;2022-07-10T11:10:26;0.17;;;0.10;;
42284;SDS011;27942;47.510;18.966;2022-07-10T11:12:58;0.10;;;0.10;;
42284;SDS011;27942;47.510;18.966;2022-07-10T11:15:23;0.38;;;0.17;;
42284;SDS011;27942;47.510;18.966;2022-07-10T11:17:50;0.20;;;0.10;;
42284;SDS011;27942;47.510;18.966;2022-07-10T11:20:15;0.15;;;0.15;;
42284;SDS011;27942;47.510;18.966;2022-07-10T11:22:52;0.30;;;0.20;;
42284;SDS011;27942;47.510;18.966;2022-07-10T11:25:36;0.32;;;0.30;;
42284;SDS011;27942;47.510;18.966;2022-07-10T11:28:10;1.02;;;0.20;;
42284;SDS011;27942;47.510;18.966;2022-07-10T11:30:53;0.10;;;0.10;;
42284;SDS011;27942;47.510;18.966;2022-07-10T11:33:19;0.17;;;0.17;;
42284;SDS011;27942;47.510;18.966;2022-07-10T11:35:48;2.40;;;0.30;;
42284;SDS011;27942;47.510;18.966;2022-07-10T11:38:21;1.23;;;0.30;;
42284;SDS011;27942;47.510;18.966;2022-07-10T11:40:46;0.25;;;0.10;;
42284;SDS011;27942;47.510;18.966;2022-07-10T11:43:12;0.20;;;0.20;;
42284;SDS011;27942;47.510;18.966;2022-07-10T11:45:41;0.17;;;0.10;;
42284;SDS011;27942;47.510;18.966;2022-07-10T11:48:07;0.63;;;0.15;;
42284;SDS011;27942;47.510;18.966;2022-07-10T11:50:37;0.40;;;0.20;;
42284;SDS011;27942;47.510;18.966;2022-07-10T11:53:02;1.00;;;0.38;;
42284;SDS011;27942;47.510;18.966;2022-07-10T11:55:28;0.10;;;0.10;;
42284;SDS011;27942;47.510;18.966;2022-07-10T11:57:54;0.13;;;0.10;;
42284;SDS011;27942;47.510;18.966;2022-07-10T12:00:26;0.17;;;0.15;;
42284;SDS011;27942;47.510;18.966;2022-07-10T12:02:52;0.30;;;0.20;;
42284;SDS011;27942;47.510;18.966;2022-07-10T12:05:36;0.15;;;0.13;;
42284;SDS011;27942;47.510;18.966;2022-07-10T12:08:02;0.40;;;0.10;;
42284;SDS011;27942;47.510;18.966;2022-07-10T12:10:29;0.20;;;0.20;;
42284;SDS011;27942;47.510;18.966;2022-07-10T12:13:02;0.10;;;0.10;;
42284;SDS011;27942;47.510;18.966;2022-07-10T12:15:34;0.20;;;0.20;;
42284;SDS011;27942;47.510;18.966;2022-07-10T12:18:00;0.00;;;0.00;;
42284;SDS011;27942;47.510;18.966;2022-07-10T12:20:25;0.10;;;0.10;;
42284;SDS011;27942;47.510;18.966;2022-07-10T12:22:50;0.50;;;0.20;;
42284;SDS011;27942;47.510;18.966;2022-07-10T12:25:18;0.17;;;0.10;;
42284;SDS011;27942;47.510;18.966;2022-07-10T12:27:43;0.00;;;0.00;;
42284;SDS011;27942;47.510;18.966;2022-07-10T12:30:09;0.05;;;0.05;;
42284;SDS011;27942;47.510;18.966;2022-07-10T12:32:34;0.17;;;0.10;;
42284;SDS011;27942;47.510;18.966;2022-07-10T12:34:59;0.20;;;0.10;;
42284;SDS011;27942;47.510;18.966;2022-07-10T12:37:24;0.00;;;0.00;;
42284;SDS011;27942;47.510;18.966;2022-07-10T12:39:50;0.10;;;0.10;;
42284;SDS011;27942;47.510;18.966;2022-07-10T12:42:25;0.10;;;0.10;;
42284;SDS011;27942;47.510;18.966;2022-07-10T12:44:51;0.35;;;0.10;;
42284;SDS011;27942;47.510;18.966;2022-07-10T12:47:16;0.13;;;0.13;;
42284;SDS011;27942;47.510;18.966;2022-07-10T12:50:01;0.10;;;0.10;;
42284;SDS011;27942;47.510;18.966;2022-07-10T12:52:31;1.00;;;0.15;;
42284;SDS011;27942;47.510;18.966;2022-07-10T13:00:16;0.35;;;0.30;;
42284;SDS011;27942;47.510;18.966;2022-07-10T13:02:41;0.50;;;0.10;;
42284;SDS011;27942;47.510;18.966;2022-07-10T13:05:06;0.75;;;0.20;;
42284;SDS011;27942;47.510;18.966;2022-07-10T13:07:32;0.08;;;0.05;;
42284;SDS011;27942;47.510;18.966;2022-07-10T13:10:01;0.32;;;0.20;;
42284;SDS011;27942;47.510;18.966;2022-07-10T13:12:26;0.52;;;0.20;;
42284;SDS011;27942;47.510;18.966;2022-07-10T13:14:52;1.42;;;0.20;;
42284;SDS011;27942;47.510;18.966;2022-07-10T13:17:17;0.30;;;0.20;;
42284;SDS011;27942;47.510;18.966;2022-07-10T13:19:42;0.30;;;0.30;;
42284;SDS011;27942;47.510;18.966;2022-07-10T13:22:07;0.20;;;0.20;;
42284;SDS011;27942;47.510;18.966;2022-07-10T13:24:32;0.28;;;0.20;;
42284;SDS011;27942;47.510;18.966;2022-07-10T13:26:58;0.20;;;0.10;;
42284;SDS011;27942;47.510;18.966;2022-07-10T13:29:23;2.65;;;0.52;;
42284;SDS011;27942;47.510;18.966;2022-07-10T13:31:48;0.32;;;0.30;;
42284;SDS011;27942;47.510;18.966;2022-07-10T13:34:13;0.32;;;0.13;;
42284;SDS011;27942;47.510;18.966;2022-07-10T13:36:38;0.17;;;0.17;;
42284;SDS011;27942;47.510;18.966;2022-07-10T13:39:04;0.52;;;0.15;;
42284;SDS011;27942;47.510;18.966;2022-07-10T13:41:29;0.45;;;0.20;;
42284;SDS011;27942;47.510;18.966;2022-07-10T13:43:54;0.30;;;0.20;;
42284;SDS011;27942;47.510;18.966;2022-07-10T13:46:20;0.35;;;0.20;;
42284;SDS011;27942;47.510;18.966;2022-07-10T13:48:45;0.60;;;0.30;;
42284;SDS011;27942;47.510;18.966;2022-07-10T13:51:10;0.10;;;0.10;;
42284;SDS011;27942;47.510;18.966;2022-07-10T13:53:36;0.30;;;0.10;;
42284;SDS011;27942;47.510;18.966;2022-07-10T13:56:03;1.08;;;0.30;;
42284;SDS011;27942;47.510;18.966;2022-07-10T13:58:29;0.10;;;0.10;;
42284;SDS011;27942;47.510;18.966;2022-07-10T14:00:54;0.10;;;0.10;;
42284;SDS011;27942;47.510;18.966;2022-07-10T14:03:19;0.38;;;0.20;;
42284;SDS011;27942;47.510;18.966;2022-07-10T14:05:44;2.08;;;0.30;;
42284;SDS011;27942;47.510;18.966;2022-07-10T14:08:10;0.20;;;0.20;;
42284;SDS011;27942;47.510;18.966;2022-07-10T14:10:35;0.20;;;0.20;;
42284;SDS011;27942;47.510;18.966;2022-07-10T14:13:00;1.55;;;0.45;;
42284;SDS011;27942;47.510;18.966;2022-07-10T14:15:26;0.20;;;0.10;;
42284;SDS011;27942;47.510;18.966;2022-07-10T14:17:51;0.10;;;0.10;;
42284;SDS011;27942;47.510;18.966;2022-07-10T14:20:16;0.68;;;0.30;;
42284;SDS011;27942;47.510;18.966;2022-07-10T14:22:42;0.10;;;0.10;;
42284;SDS011;27942;47.510;18.966;2022-07-10T14:25:11;0.55;;;0.08;;
42284;SDS011;27942;47.510;18.966;2022-07-10T14:27:36;0.15;;;0.10;;
42284;SDS011;27942;47.510;18.966;2022-07-10T14:30:01;0.25;;;0.10;;
42284;SDS011;27942;47.510;18.966;2022-07-10T14:32:26;1.02;;;0.35;;
42284;SDS011;27942;47.510;18.966;2022-07-10T14:34:52;1.25;;;0.32;;
42284;SDS011;27942;47.510;18.966;2022-07-10T14:37:17;3.25;;;0.30;;
42284;SDS011;27942;47.510;18.966;2022-07-10T14:39:42;1.20;;;0.25;;
42284;SDS011;27942;47.510;18.966;2022-07-10T14:42:07;0.00;;;0.00;;
42284;SDS011;27942;47.510;18.966;2022-07-10T14:44:34;0.77;;;0.30;;
42284;SDS011;27942;47.510;18.966;2022-07-10T14:46:59;0.05;;;0.05;;
42284;SDS011;27942;47.510;18.966;2022-07-10T14:52:08;0.52;;;0.17;;
42284;SDS011;27942;47.510;18.966;2022-07-10T14:54:33;0.22;;;0.03;;
42284;SDS011;27942;47.510;18.966;2022-07-10T14:56:59;0.40;;;0.20;;
42284;SDS011;27942;47.510;18.966;2022-07-10T14:59:24;0.17;;;0.17;;
42284;SDS011;27942;47.510;18.966;2022-07-10T15:01:49;1.88;;;0.22;;
42284;SDS011;27942;47.510;18.966;2022-07-10T15:04:14;0.30;;;0.20;;
42284;SDS011;27942;47.510;18.966;2022-07-10T15:06:39;0.20;;;0.20;;